sensor_id;sensor_type;location;lat;lon;timestamp;pressure;altitude;pressure_sealevel;temperature;humidity
46464;BME280;32161;48.148;-1.554;2023-02-17T00:01:10;102112.13;;;13.00;100.00
46464;BME280;32161;48.148;-1.554;2023-02-17T00:03:38;102112.13;;;13.00;100.00
46464;BME280;32161;48.148;-1.554;2023-02-17T00:06:09;102114.84;;;13.00;100.00
46464;BME280;32161;48.148;-1.554;2023-02-17T00:08:37;102114.44;;;12.96;100.00
46464;BME280;32161;48.148;-1.554;2023-02-17T00:11:05;102121.78;;;12.95;100.00
46464;BME280;32161;48.148;-1.554;2023-02-17T00:13:33;102123.88;;;12.93;100.00
46464;BME280;32161;48.148;-1.554;2023-02-17T00:16:07;102121.56;;;12.97;100.00
46464;BME280;32161;48.148;-1.554;2023-02-17T00:18:35;102126.19;;;12.97;100.00
46464;BME280;32161;48.148;-1.554;2023-02-17T00:21:17;102124.28;;;12.97;100.00
46464;BME280;32161;48.148;-1.554;2023-02-17T00:23:47;102125.75;;;13.00;100.00
46464;BME280;32161;48.148;-1.554;2023-02-17T00:26:19;102123.44;;;12.97;100.00
46464;BME280;32161;48.148;-1.554;2023-02-17T00:28:48;102127.84;;;12.98;100.00
46464;BME280;32161;48.148;-1.554;2023-02-17T00:31:18;102122.81;;;13.01;100.00
46464;BME280;32161;48.148;-1.554;2023-02-17T00:33:46;102127.84;;;12.98;100.00
46464;BME280;32161;48.148;-1.554;2023-02-17T00:36:18;102128.06;;;12.96;100.00
46464;BME280;32161;48.148;-1.554;2023-02-17T00:38:47;102133.13;;;12.92;100.00
46464;BME280;32161;48.148;-1.554;2023-02-17T00:41:15;102138.16;;;12.89;100.00
46464;BME280;32161;48.148;-1.554;2023-02-17T00:43:43;102136.47;;;12.81;100.00
46464;BME280;32161;48.148;-1.554;2023-02-17T00:46:11;102147.81;;;12.78;100.00
46464;BME280;32161;48.148;-1.554;2023-02-17T00:48:39;102144.47;;;12.76;100.00
46464;BME280;32161;48.148;-1.554;2023-02-17T00:51:06;102142.34;;;12.78;100.00
46464;BME280;32161;48.148;-1.554;2023-02-17T00:53:36;102127.88;;;12.78;100.00
46464;BME280;32161;48.148;-1.554;2023-02-17T00:56:04;102127.25;;;12.89;100.00
46464;BME280;32161;48.148;-1.554;2023-02-17T00:58:32;102126.81;;;12.92;100.00
46464;BME280;32161;48.148;-1.554;2023-02-17T01:01:00;102138.56;;;12.92;100.00
46464;BME280;32161;48.148;-1.554;2023-02-17T01:03:28;102123.25;;;12.91;100.00
46464;BME280;32161;48.148;-1.554;2023-02-17T01:05:56;102130.56;;;12.98;100.00
46464;BME280;32161;48.148;-1.554;2023-02-17T01:08:24;102130.38;;;12.92;100.00
46464;BME280;32161;48.148;-1.554;2023-02-17T01:10:53;102125.53;;;12.94;100.00
46464;BME280;32161;48.148;-1.554;2023-02-17T01:13:21;102112.13;;;12.93;100.00
46464;BME280;32161;48.148;-1.554;2023-02-17T01:15:51;102108.97;;;12.96;100.00
46464;BME280;32161;48.148;-1.554;2023-02-17T01:18:21;102120.50;;;12.98;100.00
46464;BME280;32161;48.148;-1.554;2023-02-17T01:20:49;102121.78;;;12.95;100.00
46464;BME280;32161;48.148;-1.554;2023-02-17T01:23:17;102121.56;;;13.04;100.00
46464;BME280;32161;48.148;-1.554;2023-02-17T01:25:46;102123.63;;;13.02;100.00
46464;BME280;32161;48.148;-1.554;2023-02-17T01:28:19;102118.81;;;12.90;100.00
46464;BME280;32161;48.148;-1.554;2023-02-17T01:30:48;102114.44;;;12.89;100.00
46464;BME280;32161;48.148;-1.554;2023-02-17T01:33:15;102116.50;;;12.87;100.00
46464;BME280;32161;48.148;-1.554;2023-02-17T01:35:43;102124.28;;;12.90;100.00
46464;BME280;32161;48.148;-1.554;2023-02-17T01:38:10;102123.88;;;12.87;100.00
46464;BME280;32161;48.148;-1.554;2023-02-17T01:40:46;102133.94;;;12.86;100.00
46464;BME280;32161;48.148;-1.554;2023-02-17T01:43:16;102116.97;;;12.84;100.00
46464;BME280;32161;48.148;-1.554;2023-02-17T01:45:50;102125.34;;;12.89;100.00
46464;BME280;32161;48.148;-1.554;2023-02-17T01:48:21;102123.03;;;12.86;100.00
46464;BME280;32161;48.148;-1.554;2023-02-17T01:50:54;102127.25;;;12.89;100.00
46464;BME280;32161;48.148;-1.554;2023-02-17T01:53:26;102128.72;;;12.85;100.00
46464;BME280;32161;48.148;-1.554;2023-02-17T01:55:56;102129.97;;;12.82;100.00
46464;BME280;32161;48.148;-1.554;2023-02-17T01:58:26;102130.19;;;12.81;100.00
46464;BME280;32161;48.148;-1.554;2023-02-17T02:00:59;102129.13;;;12.82;100.00
46464;BME280;32161;48.148;-1.554;2023-02-17T02:03:29;102134.38;;;12.83;100.00
46464;BME280;32161;48.148;-1.554;2023-02-17T02:05:58;102134.38;;;12.83;100.00
46464;BME280;32161;48.148;-1.554;2023-02-17T02:08:28;102120.53;;;12.85;100.00
46464;BME280;32161;48.148;-1.554;2023-02-17T02:10:59;102127.03;;;12.84;100.00
46464;BME280;32161;48.148;-1.554;2023-02-17T02:13:28;102126.41;;;12.82;100.00
46464;BME280;32161;48.148;-1.554;2023-02-17T02:16:04;102122.84;;;12.81;100.00
46464;BME280;32161;48.148;-1.554;2023-02-17T02:18:50;102118.22;;;12.82;100.00
46464;BME280;32161;48.148;-1.554;2023-02-17T02:22:17;102119.06;;;12.82;100.00
46464;BME280;32161;48.148;-1.554;2023-02-17T02:25:04;102112.97;;;12.80;100.00
46464;BME280;32161;48.148;-1.554;2023-02-17T02:27:55;102121.78;;;12.82;100.00
46464;BME280;32161;48.148;-1.554;2023-02-17T02:30:51;102116.75;;;12.79;100.00
46464;BME280;32161;48.148;-1.554;2023-02-17T02:33:32;102116.31;;;12.82;100.00
46464;BME280;32161;48.148;-1.554;2023-02-17T02:36:11;102115.72;;;12.80;100.00
46464;BME280;32161;48.148;-1.554;2023-02-17T02:38:50;102120.53;;;12.78;100.00
46464;BME280;32161;48.148;-1.554;2023-02-17T02:41:22;102123.91;;;12.80;100.00
46464;BME280;32161;48.148;-1.554;2023-02-17T02:43:52;102121.34;;;12.79;100.00
46464;BME280;32161;48.148;-1.554;2023-02-17T02:46:20;102124.94;;;12.79;100.00
46464;BME280;32161;48.148;-1.554;2023-02-17T02:48:49;102109.81;;;12.83;100.00
46464;BME280;32161;48.148;-1.554;2023-02-17T02:51:44;102105.81;;;12.86;100.00
46464;BME280;32161;48.148;-1.554;2023-02-17T02:54:26;102114.63;;;12.94;100.00
46464;BME280;32161;48.148;-1.554;2023-02-17T02:57:27;102098.47;;;12.86;100.00
46464;BME280;32161;48.148;-1.554;2023-02-17T03:00:11;102102.03;;;12.93;100.00
46464;BME280;32161;48.148;-1.554;2023-02-17T03:02:48;102097.84;;;12.84;100.00
46464;BME280;32161;48.148;-1.554;2023-02-17T03:05:29;102095.34;;;12.76;100.00
46464;BME280;32161;48.148;-1.554;2023-02-17T03:08:04;102090.94;;;12.75;100.00
46464;BME280;32161;48.148;-1.554;2023-02-17T03:10:34;102096.38;;;12.75;100.00
46464;BME280;32161;48.148;-1.554;2023-02-17T03:13:02;102085.88;;;12.72;100.00
46464;BME280;32161;48.148;-1.554;2023-02-17T03:15:33;102086.53;;;12.74;100.00
46464;BME280;32161;48.148;-1.554;2023-02-17T03:18:02;102089.03;;;12.76;100.00
46464;BME280;32161;48.148;-1.554;2023-02-17T03:20:35;102085.28;;;12.70;100.00
46464;BME280;32161;48.148;-1.554;2023-02-17T03:23:03;102096.59;;;12.74;100.00
46464;BME280;32161;48.148;-1.554;2023-02-17T03:25:31;102093.47;;;12.70;100.00
46464;BME280;32161;48.148;-1.554;2023-02-17T03:27:59;102090.94;;;12.75;100.00
46464;BME280;32161;48.148;-1.554;2023-02-17T03:30:27;102099.13;;;12.75;100.00
46464;BME280;32161;48.148;-1.554;2023-02-17T03:32:56;102094.50;;;12.76;100.00
46464;BME280;32161;48.148;-1.554;2023-02-17T03:35:23;102099.13;;;12.75;100.00
46464;BME280;32161;48.148;-1.554;2023-02-17T03:37:52;102103.97;;;12.73;100.00
46464;BME280;32161;48.148;-1.554;2023-02-17T03:40:20;102100.81;;;12.69;100.00
46464;BME280;32161;48.148;-1.554;2023-02-17T03:42:47;102095.75;;;12.60;100.00
46464;BME280;32161;48.148;-1.554;2023-02-17T03:45:15;102103.72;;;12.75;100.00
46464;BME280;32161;48.148;-1.554;2023-02-17T03:47:43;102101.00;;;12.68;100.00
46464;BME280;32161;48.148;-1.554;2023-02-17T03:50:10;102107.09;;;12.70;100.00
46464;BME280;32161;48.148;-1.554;2023-02-17T03:52:38;102103.72;;;12.68;100.00
46464;BME280;32161;48.148;-1.554;2023-02-17T03:55:07;102103.72;;;12.68;100.00
46464;BME280;32161;48.148;-1.554;2023-02-17T03:57:35;102110.06;;;12.68;100.00
46464;BME280;32161;48.148;-1.554;2023-02-17T04:00:03;102107.94;;;12.64;100.00
46464;BME280;32161;48.148;-1.554;2023-02-17T04:02:31;102115.09;;;12.65;100.00
46464;BME280;32161;48.148;-1.554;2023-02-17T04:04:58;102119.69;;;12.58;100.00
46464;BME280;32161;48.148;-1.554;2023-02-17T04:07:26;102122.22;;;12.59;100.00
46464;BME280;32161;48.148;-1.554;2023-02-17T04:09:54;102125.78;;;12.60;100.00
46464;BME280;32161;48.148;-1.554;2023-02-17T04:12:23;102124.72;;;12.54;100.00
46464;BME280;32161;48.148;-1.554;2023-02-17T04:14:50;102129.78;;;12.57;100.00
46464;BME280;32161;48.148;-1.554;2023-02-17T04:17:18;102135.22;;;12.64;100.00
46464;BME280;32161;48.148;-1.554;2023-02-17T04:19:46;102139.00;;;12.56;100.00
46464;BME280;32161;48.148;-1.554;2023-02-17T04:22:13;102138.78;;;12.58;100.00
46464;BME280;32161;48.148;-1.554;2023-02-17T04:24:41;102142.34;;;12.52;100.00
46464;BME280;32161;48.148;-1.554;2023-02-17T04:27:08;102141.94;;;12.55;100.00
46464;BME280;32161;48.148;-1.554;2023-02-17T04:29:37;102141.28;;;12.53;100.00
46464;BME280;32161;48.148;-1.554;2023-02-17T04:32:05;102150.53;;;12.52;100.00
46464;BME280;32161;48.148;-1.554;2023-02-17T04:34:32;102157.44;;;12.48;100.00
46464;BME280;32161;48.148;-1.554;2023-02-17T04:37:00;102152.44;;;12.58;100.00
46464;BME280;32161;48.148;-1.554;2023-02-17T04:39:28;102161.66;;;12.50;100.00
46464;BME280;32161;48.148;-1.554;2023-02-17T04:41:55;102162.91;;;12.48;100.00
46464;BME280;32161;48.148;-1.554;2023-02-17T04:44:23;102164.56;;;12.49;100.00
46464;BME280;32161;48.148;-1.554;2023-02-17T04:46:52;102167.72;;;12.52;100.00
46464;BME280;32161;48.148;-1.554;2023-02-17T04:49:19;102171.09;;;12.54;100.00
46464;BME280;32161;48.148;-1.554;2023-02-17T04:51:47;102167.09;;;12.57;100.00
46464;BME280;32161;48.148;-1.554;2023-02-17T04:54:15;102169.84;;;12.63;100.00
46464;BME280;32161;48.148;-1.554;2023-02-17T04:56:42;102175.09;;;12.65;100.00
46464;BME280;32161;48.148;-1.554;2023-02-17T04:59:10;102173.22;;;12.65;100.00
46464;BME280;32161;48.148;-1.554;2023-02-17T05:01:37;102179.91;;;12.63;100.00
46464;BME280;32161;48.148;-1.554;2023-02-17T05:04:06;102178.03;;;12.63;100.00
46464;BME280;32161;48.148;-1.554;2023-02-17T05:06:34;102173.84;;;12.61;100.00
46464;BME280;32161;48.148;-1.554;2023-02-17T05:09:01;102179.50;;;12.59;100.00
46464;BME280;32161;48.148;-1.554;2023-02-17T05:11:29;102176.97;;;12.58;100.00
46464;BME280;32161;48.148;-1.554;2023-02-17T05:13:57;102186.84;;;12.59;100.00
46464;BME280;32161;48.148;-1.554;2023-02-17T05:16:25;102180.31;;;12.60;100.00
46464;BME280;32161;48.148;-1.554;2023-02-17T05:18:52;102183.88;;;12.60;100.00
46464;BME280;32161;48.148;-1.554;2023-02-17T05:21:21;102179.91;;;12.63;100.00
46464;BME280;32161;48.148;-1.554;2023-02-17T05:23:49;102182.22;;;12.66;100.00
46464;BME280;32161;48.148;-1.554;2023-02-17T05:26:16;102184.53;;;12.62;100.00
46464;BME280;32161;48.148;-1.554;2023-02-17T05:28:44;102186.44;;;12.62;100.00
46464;BME280;32161;48.148;-1.554;2023-02-17T05:31:11;102177.59;;;12.60;100.00
46464;BME280;32161;48.148;-1.554;2023-02-17T05:33:39;102191.47;;;12.71;100.00
46464;BME280;32161;48.148;-1.554;2023-02-17T05:36:09;102185.38;;;12.83;100.00
46464;BME280;32161;48.148;-1.554;2023-02-17T05:38:39;102181.19;;;12.87;100.00
46464;BME280;32161;48.148;-1.554;2023-02-17T05:41:06;102185.16;;;12.71;100.00
46464;BME280;32161;48.148;-1.554;2023-02-17T05:43:34;102182.41;;;12.64;100.00
46464;BME280;32161;48.148;-1.554;2023-02-17T05:46:02;102172.78;;;12.62;100.00
46464;BME280;32161;48.148;-1.554;2023-02-17T05:48:30;102176.13;;;12.64;100.00
46464;BME280;32161;48.148;-1.554;2023-02-17T05:50:58;102177.16;;;12.56;100.00
46464;BME280;32161;48.148;-1.554;2023-02-17T05:53:26;102177.63;;;12.53;100.00
46464;BME280;32161;48.148;-1.554;2023-02-17T05:55:55;102176.13;;;12.51;100.00
46464;BME280;32161;48.148;-1.554;2023-02-17T05:58:22;102187.03;;;12.51;100.00
46464;BME280;32161;48.148;-1.554;2023-02-17T06:00:50;102188.28;;;12.48;100.00
46464;BME280;32161;48.148;-1.554;2023-02-17T06:03:17;102190.59;;;12.51;100.00
46464;BME280;32161;48.148;-1.554;2023-02-17T06:05:45;102183.25;;;12.52;100.00
46464;BME280;32161;48.148;-1.554;2023-02-17T06:08:13;102183.06;;;12.53;100.00
46464;BME280;32161;48.148;-1.554;2023-02-17T06:10:41;102185.81;;;12.53;100.00
46464;BME280;32161;48.148;-1.554;2023-02-17T06:13:10;102188.31;;;12.55;100.00
46464;BME280;32161;48.148;-1.554;2023-02-17T06:15:38;102196.50;;;12.55;100.00
46464;BME280;32161;48.148;-1.554;2023-02-17T06:18:05;102193.75;;;12.55;100.00
46464;BME280;32161;48.148;-1.554;2023-02-17T06:20:33;102189.97;;;12.56;100.00
46464;BME280;32161;48.148;-1.554;2023-02-17T06:23:00;102199.00;;;12.56;100.00
46464;BME280;32161;48.148;-1.554;2023-02-17T06:25:28;102188.09;;;12.56;100.00
46464;BME280;32161;48.148;-1.554;2023-02-17T06:27:56;102191.66;;;12.57;100.00
46464;BME280;32161;48.148;-1.554;2023-02-17T06:30:25;102199.81;;;12.57;100.00
46464;BME280;32161;48.148;-1.554;2023-02-17T06:32:53;102197.09;;;12.57;100.00
46464;BME280;32161;48.148;-1.554;2023-02-17T06:35:20;102194.38;;;12.57;100.00
46464;BME280;32161;48.148;-1.554;2023-02-17T06:37:48;102198.16;;;12.56;100.00
46464;BME280;32161;48.148;-1.554;2023-02-17T06:40:16;102195.44;;;12.56;100.00
46464;BME280;32161;48.148;-1.554;2023-02-17T06:42:44;102187.25;;;12.56;100.00
46464;BME280;32161;48.148;-1.554;2023-02-17T06:45:11;102193.75;;;12.55;100.00
46464;BME280;32161;48.148;-1.554;2023-02-17T06:47:41;102201.72;;;12.56;100.00
46464;BME280;32161;48.148;-1.554;2023-02-17T06:50:10;102206.16;;;12.57;100.00
46464;BME280;32161;48.148;-1.554;2023-02-17T06:52:37;102214.34;;;12.57;100.00
46464;BME280;32161;48.148;-1.554;2023-02-17T06:55:06;102218.09;;;12.56;100.00
46464;BME280;32161;48.148;-1.554;2023-02-17T06:57:34;102227.97;;;12.57;100.00
46464;BME280;32161;48.148;-1.554;2023-02-17T07:00:02;102221.66;;;12.57;100.00
46464;BME280;32161;48.148;-1.554;2023-02-17T07:02:30;102226.28;;;12.56;100.00
46464;BME280;32161;48.148;-1.554;2023-02-17T07:04:59;102234.66;;;12.55;100.00
46464;BME280;32161;48.148;-1.554;2023-02-17T07:07:26;102233.63;;;12.56;100.00
46464;BME280;32161;48.148;-1.554;2023-02-17T07:09:54;102241.81;;;12.56;100.00
46464;BME280;32161;48.148;-1.554;2023-02-17T07:12:22;102247.25;;;12.56;100.00
46464;BME280;32161;48.148;-1.554;2023-02-17T07:14:49;102249.38;;;12.54;100.00
46464;BME280;32161;48.148;-1.554;2023-02-17T07:17:17;102248.53;;;12.53;100.00
46464;BME280;32161;48.148;-1.554;2023-02-17T07:19:44;102242.44;;;12.51;100.00
46464;BME280;32161;48.148;-1.554;2023-02-17T07:22:13;102244.09;;;12.52;100.00
46464;BME280;32161;48.148;-1.554;2023-02-17T07:24:41;102250.38;;;12.53;100.00
46464;BME280;32161;48.148;-1.554;2023-02-17T07:27:09;102245.16;;;12.51;100.00
46464;BME280;32161;48.148;-1.554;2023-02-17T07:29:36;102247.22;;;12.49;100.00
46464;BME280;32161;48.148;-1.554;2023-02-17T07:32:04;102245.56;;;12.48;100.00
46464;BME280;32161;48.148;-1.554;2023-02-17T07:34:32;102248.72;;;12.52;100.00
46464;BME280;32161;48.148;-1.554;2023-02-17T07:36:59;102251.03;;;12.55;100.00
46464;BME280;32161;48.148;-1.554;2023-02-17T07:39:30;102253.56;;;12.50;100.00
46464;BME280;32161;48.148;-1.554;2023-02-17T07:41:57;102253.56;;;12.50;100.00
46464;BME280;32161;48.148;-1.554;2023-02-17T07:44:26;102264.47;;;12.50;100.00
46464;BME280;32161;48.148;-1.554;2023-02-17T07:46:54;102263.19;;;12.52;100.00
46464;BME280;32161;48.148;-1.554;2023-02-17T07:49:21;102265.09;;;12.52;100.00
46464;BME280;32161;48.148;-1.554;2023-02-17T07:51:49;102267.81;;;12.52;100.00
46464;BME280;32161;48.148;-1.554;2023-02-17T07:54:16;102275.59;;;12.55;100.00
46464;BME280;32161;48.148;-1.554;2023-02-17T07:56:46;102272.63;;;12.56;100.00
46464;BME280;32161;48.148;-1.554;2023-02-17T07:59:14;102275.19;;;12.58;100.00
46464;BME280;32161;48.148;-1.554;2023-02-17T08:01:41;102282.31;;;12.59;100.00
46464;BME280;32161;48.148;-1.554;2023-02-17T08:04:09;102277.06;;;12.64;100.00
46464;BME280;32161;48.148;-1.554;2023-02-17T08:06:37;102287.38;;;12.68;100.00
46464;BME280;32161;48.148;-1.554;2023-02-17T08:09:08;102284.66;;;12.68;100.00
46464;BME280;32161;48.148;-1.554;2023-02-17T08:11:54;102277.94;;;12.71;100.00
46464;BME280;32161;48.148;-1.554;2023-02-17T08:14:39;102287.59;;;12.74;100.00
46464;BME280;32161;48.148;-1.554;2023-02-17T08:17:07;102290.94;;;12.76;100.00
46464;BME280;32161;48.148;-1.554;2023-02-17T08:19:35;102283.63;;;12.76;100.00
46464;BME280;32161;48.148;-1.554;2023-02-17T08:22:02;102292.44;;;12.78;100.00
46464;BME280;32161;48.148;-1.554;2023-02-17T08:24:30;102290.13;;;12.82;100.00
46464;BME280;32161;48.148;-1.554;2023-02-17T08:26:59;102287.63;;;12.80;100.00
46464;BME280;32161;48.148;-1.554;2023-02-17T08:29:26;102296.81;;;12.79;100.00
46464;BME280;32161;48.148;-1.554;2023-02-17T08:31:54;102297.69;;;12.86;100.00
46464;BME280;32161;48.148;-1.554;2023-02-17T08:34:21;102297.69;;;12.86;100.00
46464;BME280;32161;48.148;-1.554;2023-02-17T08:36:49;102294.75;;;12.94;100.00
46464;BME280;32161;48.148;-1.554;2023-02-17T08:39:17;102295.59;;;12.88;100.00
46464;BME280;32161;48.148;-1.554;2023-02-17T08:41:45;102301.50;;;12.92;100.00
46464;BME280;32161;48.148;-1.554;2023-02-17T08:44:16;102302.94;;;12.94;100.00
46464;BME280;32161;48.148;-1.554;2023-02-17T08:46:46;102304.84;;;12.94;100.00
46464;BME280;32161;48.148;-1.554;2023-02-17T08:49:16;102300.84;;;12.90;100.00
46464;BME280;32161;48.148;-1.554;2023-02-17T08:51:44;102306.31;;;12.90;100.00
46464;BME280;32161;48.148;-1.554;2023-02-17T08:54:12;102301.28;;;12.93;100.00
46464;BME280;32161;48.148;-1.554;2023-02-17T08:56:41;102301.28;;;12.93;100.00
46464;BME280;32161;48.148;-1.554;2023-02-17T08:59:10;102310.09;;;13.09;100.00
46464;BME280;32161;48.148;-1.554;2023-02-17T09:01:41;102308.63;;;13.13;100.00
46464;BME280;32161;48.148;-1.554;2023-02-17T09:04:11;102316.84;;;13.13;100.00
46464;BME280;32161;48.148;-1.554;2023-02-17T09:06:43;102312.84;;;13.15;100.00
46464;BME280;32161;48.148;-1.554;2023-02-17T09:09:13;102313.88;;;13.14;100.00
46464;BME280;32161;48.148;-1.554;2023-02-17T09:11:41;102321.03;;;13.15;100.00
46464;BME280;32161;48.148;-1.554;2023-02-17T09:14:09;102320.00;;;13.16;100.00
46464;BME280;32161;48.148;-1.554;2023-02-17T09:16:39;102319.81;;;13.25;100.00
46464;BME280;32161;48.148;-1.554;2023-02-17T09:19:06;102320.81;;;13.17;100.00
46464;BME280;32161;48.148;-1.554;2023-02-17T09:21:34;102321.66;;;13.17;100.00
46464;BME280;32161;48.148;-1.554;2023-02-17T09:24:02;102324.88;;;13.34;100.00
46464;BME280;32161;48.148;-1.554;2023-02-17T09:26:29;102326.09;;;13.45;100.00
46464;BME280;32161;48.148;-1.554;2023-02-17T09:28:57;102329.22;;;13.22;100.00
46464;BME280;32161;48.148;-1.554;2023-02-17T09:31:26;102329.00;;;13.17;100.00
46464;BME280;32161;48.148;-1.554;2023-02-17T09:33:57;102338.50;;;13.28;100.00
46464;BME280;32161;48.148;-1.554;2023-02-17T09:36:27;102327.16;;;13.37;100.00
46464;BME280;32161;48.148;-1.554;2023-02-17T09:38:55;102327.38;;;13.36;100.00
46464;BME280;32161;48.148;-1.554;2023-02-17T09:41:29;102331.78;;;13.37;100.00
46464;BME280;32161;48.148;-1.554;2023-02-17T09:44:01;102325.06;;;13.33;100.00
46464;BME280;32161;48.148;-1.554;2023-02-17T09:46:34;102326.31;;;13.37;100.00
46464;BME280;32161;48.148;-1.554;2023-02-17T09:49:15;102335.78;;;13.34;100.00
46464;BME280;32161;48.148;-1.554;2023-02-17T09:51:47;102341.06;;;13.49;100.00
46464;BME280;32161;48.148;-1.554;2023-02-17T09:54:25;102341.06;;;13.49;100.00
46464;BME280;32161;48.148;-1.554;2023-02-17T09:56:56;102342.50;;;13.52;100.00
46464;BME280;32161;48.148;-1.554;2023-02-17T09:59:31;102344.81;;;13.55;100.00
46464;BME280;32161;48.148;-1.554;2023-02-17T10:02:06;102347.78;;;13.53;100.00
46464;BME280;32161;48.148;-1.554;2023-02-17T10:04:39;102346.91;;;13.53;100.00
46464;BME280;32161;48.148;-1.554;2023-02-17T10:07:13;102353.44;;;13.65;100.00
46464;BME280;32161;48.148;-1.554;2023-02-17T10:09:48;102356.19;;;13.65;100.00
46464;BME280;32161;48.148;-1.554;2023-02-17T10:12:20;102353.63;;;13.77;100.00
46464;BME280;32161;48.148;-1.554;2023-02-17T10:14:56;102360.13;;;13.82;100.00
46464;BME280;32161;48.148;-1.554;2023-02-17T10:17:31;102360.56;;;13.86;100.00
46464;BME280;32161;48.148;-1.554;2023-02-17T10:20:06;102357.41;;;13.96;100.00
46464;BME280;32161;48.148;-1.554;2023-02-17T10:22:36;102356.94;;;13.99;100.00
46464;BME280;32161;48.148;-1.554;2023-02-17T10:25:14;102350.44;;;13.93;100.00
46464;BME280;32161;48.148;-1.554;2023-02-17T10:27:47;102358.44;;;14.01;100.00
46464;BME280;32161;48.148;-1.554;2023-02-17T10:30:30;102359.66;;;14.05;100.00
46464;BME280;32161;48.148;-1.554;2023-02-17T10:33:05;102352.22;;;14.32;100.00
46464;BME280;32161;48.148;-1.554;2023-02-17T10:35:49;102357.44;;;14.47;100.00
46464;BME280;32161;48.148;-1.554;2023-02-17T10:38:28;102359.38;;;14.33;100.00
46464;BME280;32161;48.148;-1.554;2023-02-17T10:41:00;102370.09;;;14.41;100.00
46464;BME280;32161;48.148;-1.554;2023-02-17T10:43:31;102360.41;;;14.46;100.00
46464;BME280;32161;48.148;-1.554;2023-02-17T10:46:04;102358.53;;;14.39;100.00
46464;BME280;32161;48.148;-1.554;2023-02-17T10:48:36;102361.84;;;14.48;100.00
46464;BME280;32161;48.148;-1.554;2023-02-17T10:51:06;102367.31;;;14.48;100.00
46464;BME280;32161;48.148;-1.554;2023-02-17T10:53:37;102371.34;;;14.52;100.00
46464;BME280;32161;48.148;-1.554;2023-02-17T10:56:10;102370.72;;;14.44;100.00
46464;BME280;32161;48.148;-1.554;2023-02-17T10:58:49;102369.06;;;14.29;100.00
46464;BME280;32161;48.148;-1.554;2023-02-17T11:01:18;102369.88;;;14.36;100.00
46464;BME280;32161;48.148;-1.554;2023-02-17T11:03:59;102368.59;;;14.52;100.00
46464;BME280;32161;48.148;-1.554;2023-02-17T11:06:30;102368.16;;;14.55;100.00
46464;BME280;32161;48.148;-1.554;2023-02-17T11:09:02;102360.13;;;14.67;100.00
46464;BME280;32161;48.148;-1.554;2023-02-17T11:11:34;102360.06;;;14.80;100.00
46464;BME280;32161;48.148;-1.554;2023-02-17T11:14:11;102359.44;;;14.78;100.00
46464;BME280;32161;48.148;-1.554;2023-02-17T11:16:42;102366.81;;;14.71;100.00
46464;BME280;32161;48.148;-1.554;2023-02-17T11:19:24;102360.91;;;14.81;100.00
46464;BME280;32161;48.148;-1.554;2023-02-17T11:21:55;102360.38;;;14.97;100.00
46464;BME280;32161;48.148;-1.554;2023-02-17T11:24:23;102355.47;;;15.06;100.00
46464;BME280;32161;48.148;-1.554;2023-02-17T11:26:57;102360.59;;;15.27;97.93
46464;BME280;32161;48.148;-1.554;2023-02-17T11:29:25;102364.13;;;15.34;97.23
46464;BME280;32161;48.148;-1.554;2023-02-17T11:31:55;102368.09;;;15.38;96.72
46464;BME280;32161;48.148;-1.554;2023-02-17T11:34:26;102368.19;;;15.25;98.37
46464;BME280;32161;48.148;-1.554;2023-02-17T11:37:01;102361.91;;;15.18;98.90
46464;BME280;32161;48.148;-1.554;2023-02-17T11:39:29;102357.63;;;15.29;99.26
46464;BME280;32161;48.148;-1.554;2023-02-17T11:41:57;102364.00;;;15.48;98.05
46464;BME280;32161;48.148;-1.554;2023-02-17T11:44:26;102357.84;;;15.52;96.60
46464;BME280;32161;48.148;-1.554;2023-02-17T11:47:04;102359.94;;;15.57;96.19
46464;BME280;32161;48.148;-1.554;2023-02-17T11:50:00;102361.56;;;15.65;96.27
46464;BME280;32161;48.148;-1.554;2023-02-17T11:52:53;102353.09;;;15.73;96.18
46464;BME280;32161;48.148;-1.554;2023-02-17T11:55:34;102360.59;;;15.84;96.53
46464;BME280;32161;48.148;-1.554;2023-02-17T11:58:22;102354.56;;;15.94;95.49
46464;BME280;32161;48.148;-1.554;2023-02-17T12:01:01;102346.19;;;15.89;96.31
46464;BME280;32161;48.148;-1.554;2023-02-17T12:04:04;102335.00;;;16.08;94.43
46464;BME280;32161;48.148;-1.554;2023-02-17T12:06:46;102335.00;;;16.08;94.20
46464;BME280;32161;48.148;-1.554;2023-02-17T12:09:28;102337.22;;;16.18;93.18
46464;BME280;32161;48.148;-1.554;2023-02-17T12:12:08;102338.72;;;16.14;93.91
46464;BME280;32161;48.148;-1.554;2023-02-17T12:15:00;102336.53;;;16.23;92.24
46464;BME280;32161;48.148;-1.554;2023-02-17T12:17:42;102334.00;;;16.21;93.62
46464;BME280;32161;48.148;-1.554;2023-02-17T12:20:34;102330.28;;;16.16;94.67
46464;BME280;32161;48.148;-1.554;2023-02-17T12:26:05;102325.31;;;16.43;93.94
46464;BME280;32161;48.148;-1.554;2023-02-17T12:28:51;102320.69;;;16.55;90.96
46464;BME280;32161;48.148;-1.554;2023-02-17T12:34:33;102322.69;;;16.48;92.42
46464;BME280;32161;48.148;-1.554;2023-02-17T12:37:04;102313.81;;;16.64;89.78
46464;BME280;32161;48.148;-1.554;2023-02-17T12:39:40;102323.53;;;16.48;90.80
46464;BME280;32161;48.148;-1.554;2023-02-17T12:42:13;102315.28;;;16.48;91.65
46464;BME280;32161;48.148;-1.554;2023-02-17T12:44:46;102312.09;;;16.51;92.89
46464;BME280;32161;48.148;-1.554;2023-02-17T12:47:22;102303.78;;;16.58;92.74
46464;BME280;32161;48.148;-1.554;2023-02-17T12:49:56;102300.69;;;16.66;92.04
46464;BME280;32161;48.148;-1.554;2023-02-17T12:52:29;102297.50;;;16.69;91.15
46464;BME280;32161;48.148;-1.554;2023-02-17T12:55:09;102297.00;;;16.60;91.69
46464;BME280;32161;48.148;-1.554;2023-02-17T12:57:46;102290.25;;;16.56;91.56